Terminal Aerodrome Forecast
Issued by NWS

Current Version | Previous Version | Graphics & Text | Print | Product List | Glossary On
Versions: 1 2 3 4 5 6 7 8 9 10 11 12 13 14 15 16 17 18 19 20 21
000
FTUS41 KPBZ 250500
TAFHLG
TAF
KHLG 250538Z 2506/2606 25014G22KT P6SM OVC040
     FM250900 25012G18KT P6SM OVC025
     FM251500 30012KT P6SM BKN025=

USA.gov is the U.S. government's official web portal to all federal, state and local government web resources and services.